sensor_id;sensor_type;location;lat;lon;timestamp;pressure;altitude;pressure_sealevel;temperature;humidity
10897;BME280;5501;51.176;6.470;2022-07-23T00:02:55;101271.97;;;19.49;100.00
10897;BME280;5501;51.176;6.470;2022-07-23T00:07:57;101263.88;;;19.49;100.00
10897;BME280;5501;51.176;6.470;2022-07-23T00:12:58;101268.94;;;19.55;100.00
10897;BME280;5501;51.176;6.470;2022-07-23T00:18:00;101255.00;;;19.47;100.00
10897;BME280;5501;51.176;6.470;2022-07-23T00:23:01;101247.25;;;19.41;100.00
10897;BME280;5501;51.176;6.470;2022-07-23T00:28:03;101248.28;;;19.54;100.00
10897;BME280;5501;51.176;6.470;2022-07-23T00:33:07;101257.09;;;19.42;100.00
10897;BME280;5501;51.176;6.470;2022-07-23T00:38:10;101258.22;;;19.38;100.00
10897;BME280;5501;51.176;6.470;2022-07-23T00:43:12;101255.41;;;19.40;100.00
10897;BME280;5501;51.176;6.470;2022-07-23T00:48:13;101256.91;;;19.45;100.00
10897;BME280;5501;51.176;6.470;2022-07-23T00:53:15;101258.72;;;19.29;100.00
10897;BME280;5501;51.176;6.470;2022-07-23T00:58:17;101263.44;;;19.41;100.00
10897;BME280;5501;51.176;6.470;2022-07-23T01:03:19;101256.81;;;19.31;100.00
10897;BME280;5501;51.176;6.470;2022-07-23T01:08:21;101271.13;;;19.49;100.00
10897;BME280;5501;51.176;6.470;2022-07-23T01:13:23;101266.94;;;19.43;100.00
10897;BME280;5501;51.176;6.470;2022-07-23T01:18:25;101262.91;;;19.35;100.00
10897;BME280;5501;51.176;6.470;2022-07-23T01:23:26;101262.38;;;19.28;100.00
10897;BME280;5501;51.176;6.470;2022-07-23T01:28:31;101254.31;;;19.11;100.00
10897;BME280;5501;51.176;6.470;2022-07-23T01:33:33;101247.72;;;19.17;100.00
10897;BME280;5501;51.176;6.470;2022-07-23T01:38:35;101243.50;;;19.11;100.00
10897;BME280;5501;51.176;6.470;2022-07-23T01:43:36;101245.38;;;18.94;100.00
10897;BME280;5501;51.176;6.470;2022-07-23T01:48:38;101244.69;;;18.90;100.00
10897;BME280;5501;51.176;6.470;2022-07-23T01:53:59;101241.19;;;18.88;100.00
10897;BME280;5501;51.176;6.470;2022-07-23T01:59:01;101234.22;;;18.84;100.00
10897;BME280;5501;51.176;6.470;2022-07-23T02:04:03;101242.94;;;18.72;100.00
10897;BME280;5501;51.176;6.470;2022-07-23T02:09:05;101245.81;;;18.69;100.00
10897;BME280;5501;51.176;6.470;2022-07-23T02:14:06;101244.25;;;18.65;100.00
10897;BME280;5501;51.176;6.470;2022-07-23T02:19:08;101239.50;;;18.53;100.00
10897;BME280;5501;51.176;6.470;2022-07-23T02:24:10;101231.88;;;18.61;100.00
10897;BME280;5501;51.176;6.470;2022-07-23T02:29:14;101231.16;;;18.58;100.00
10897;BME280;5501;51.176;6.470;2022-07-23T02:34:16;101232.03;;;18.58;100.00
10897;BME280;5501;51.176;6.470;2022-07-23T02:39:17;101240.75;;;18.63;100.00
10897;BME280;5501;51.176;6.470;2022-07-23T02:44:19;101238.06;;;18.46;100.00
10897;BME280;5501;51.176;6.470;2022-07-23T02:49:24;101228.06;;;18.48;100.00
10897;BME280;5501;51.176;6.470;2022-07-23T02:54:26;101231.63;;;18.49;100.00
10897;BME280;5501;51.176;6.470;2022-07-23T02:59:28;101244.06;;;18.34;100.00
10897;BME280;5501;51.176;6.470;2022-07-23T03:04:29;101241.88;;;18.42;100.00
10897;BME280;5501;51.176;6.470;2022-07-23T03:09:31;101241.38;;;18.51;100.00
10897;BME280;5501;51.176;6.470;2022-07-23T03:14:33;101240.06;;;18.43;100.00
10897;BME280;5501;51.176;6.470;2022-07-23T03:19:34;101243.94;;;18.37;100.00
10897;BME280;5501;51.176;6.470;2022-07-23T03:24:36;101240.25;;;18.21;100.00
10897;BME280;5501;51.176;6.470;2022-07-23T03:30:00;101241.50;;;18.14;100.00
10897;BME280;5501;51.176;6.470;2022-07-23T03:35:01;101242.66;;;18.09;100.00
10897;BME280;5501;51.176;6.470;2022-07-23T03:40:04;101247.75;;;18.15;100.00
10897;BME280;5501;51.176;6.470;2022-07-23T03:45:06;101242.59;;;18.10;100.00
10897;BME280;5501;51.176;6.470;2022-07-23T03:50:07;101238.63;;;18.00;100.00
10897;BME280;5501;51.176;6.470;2022-07-23T03:55:09;101238.44;;;18.03;100.00
10897;BME280;5501;51.176;6.470;2022-07-23T04:00:11;101252.72;;;18.05;100.00
10897;BME280;5501;51.176;6.470;2022-07-23T04:05:15;101253.19;;;17.96;100.00
10897;BME280;5501;51.176;6.470;2022-07-23T04:10:18;101255.69;;;17.99;100.00
10897;BME280;5501;51.176;6.470;2022-07-23T04:15:20;101265.69;;;17.97;100.00
10897;BME280;5501;51.176;6.470;2022-07-23T04:20:23;101256.97;;;17.92;100.00
10897;BME280;5501;51.176;6.470;2022-07-23T04:25:30;101258.47;;;17.98;100.00
10897;BME280;5501;51.176;6.470;2022-07-23T04:30:32;101265.13;;;17.91;100.00
10897;BME280;5501;51.176;6.470;2022-07-23T04:35:35;101265.38;;;18.03;100.00
10897;BME280;5501;51.176;6.470;2022-07-23T04:40:46;101275.22;;;18.04;100.00
10897;BME280;5501;51.176;6.470;2022-07-23T04:45:47;101289.91;;;17.97;100.00
10897;BME280;5501;51.176;6.470;2022-07-23T04:50:49;101287.66;;;18.07;100.00
10897;BME280;5501;51.176;6.470;2022-07-23T04:55:58;101299.59;;;18.01;100.00
10897;BME280;5501;51.176;6.470;2022-07-23T05:01:00;101302.03;;;18.24;100.00
10897;BME280;5501;51.176;6.470;2022-07-23T05:06:04;101300.25;;;18.23;100.00
10897;BME280;5501;51.176;6.470;2022-07-23T05:11:06;101304.53;;;18.27;100.00
10897;BME280;5501;51.176;6.470;2022-07-23T05:16:08;101306.78;;;18.36;100.00
10897;BME280;5501;51.176;6.470;2022-07-23T05:21:10;101313.25;;;18.32;100.00
10897;BME280;5501;51.176;6.470;2022-07-23T05:26:12;101316.91;;;18.31;100.00
10897;BME280;5501;51.176;6.470;2022-07-23T05:31:13;101315.94;;;18.32;100.00
10897;BME280;5501;51.176;6.470;2022-07-23T05:36:16;101311.41;;;18.51;100.00
10897;BME280;5501;51.176;6.470;2022-07-23T05:41:26;101324.34;;;18.62;100.00
10897;BME280;5501;51.176;6.470;2022-07-23T05:46:28;101332.19;;;19.00;98.68
10897;BME280;5501;51.176;6.470;2022-07-23T05:51:34;101328.88;;;18.78;98.25
10897;BME280;5501;51.176;6.470;2022-07-23T05:56:37;101333.31;;;18.79;99.34
10897;BME280;5501;51.176;6.470;2022-07-23T06:01:38;101335.53;;;18.88;98.76
10897;BME280;5501;51.176;6.470;2022-07-23T06:06:50;101338.41;;;18.85;99.20
10897;BME280;5501;51.176;6.470;2022-07-23T06:11:52;101343.31;;;18.77;100.00
10897;BME280;5501;51.176;6.470;2022-07-23T06:16:54;101341.72;;;18.90;100.00
10897;BME280;5501;51.176;6.470;2022-07-23T06:21:56;101339.97;;;19.23;100.00
10897;BME280;5501;51.176;6.470;2022-07-23T06:26:58;101344.41;;;19.24;99.86
10897;BME280;5501;51.176;6.470;2022-07-23T06:32:00;101346.94;;;19.27;97.67
10897;BME280;5501;51.176;6.470;2022-07-23T06:37:02;101345.91;;;19.30;99.03
10897;BME280;5501;51.176;6.470;2022-07-23T06:42:05;101353.56;;;19.37;99.61
10897;BME280;5501;51.176;6.470;2022-07-23T06:47:33;101358.66;;;19.43;100.00
10897;BME280;5501;51.176;6.470;2022-07-23T06:52:39;101357.66;;;19.61;97.54
10897;BME280;5501;51.176;6.470;2022-07-23T06:57:44;101355.56;;;19.66;94.97
10897;BME280;5501;51.176;6.470;2022-07-23T07:02:46;101361.69;;;19.70;95.42
10897;BME280;5501;51.176;6.470;2022-07-23T07:07:48;101366.03;;;19.72;94.58
10897;BME280;5501;51.176;6.470;2022-07-23T07:12:50;101359.97;;;19.84;94.14
10897;BME280;5501;51.176;6.470;2022-07-23T07:17:52;101369.34;;;19.93;93.07
10897;BME280;5501;51.176;6.470;2022-07-23T07:22:54;101375.75;;;20.08;92.21
10897;BME280;5501;51.176;6.470;2022-07-23T07:27:56;101383.97;;;20.22;92.82
10897;BME280;5501;51.176;6.470;2022-07-23T07:32:59;101376.56;;;20.10;92.86
10897;BME280;5501;51.176;6.470;2022-07-23T07:38:01;101373.25;;;20.20;90.91
10897;BME280;5501;51.176;6.470;2022-07-23T07:43:03;101385.09;;;20.49;88.18
10897;BME280;5501;51.176;6.470;2022-07-23T07:48:05;101391.56;;;20.46;85.92
10897;BME280;5501;51.176;6.470;2022-07-23T07:53:07;101385.84;;;20.66;84.60
10897;BME280;5501;51.176;6.470;2022-07-23T07:58:10;101388.03;;;20.75;81.67
10897;BME280;5501;51.176;6.470;2022-07-23T08:03:11;101392.44;;;20.92;79.29
10897;BME280;5501;51.176;6.470;2022-07-23T08:08:14;101406.31;;;21.01;79.14
10897;BME280;5501;51.176;6.470;2022-07-23T08:13:16;101406.25;;;21.17;80.66
10897;BME280;5501;51.176;6.470;2022-07-23T08:18:17;101416.28;;;21.15;79.54
10897;BME280;5501;51.176;6.470;2022-07-23T08:23:19;101410.47;;;21.07;77.91
10897;BME280;5501;51.176;6.470;2022-07-23T08:28:21;101414.50;;;21.00;76.64
10897;BME280;5501;51.176;6.470;2022-07-23T08:33:23;101420.38;;;21.22;73.61
10897;BME280;5501;51.176;6.470;2022-07-23T08:38:35;101427.94;;;21.45;72.65
10897;BME280;5501;51.176;6.470;2022-07-23T08:43:37;101426.22;;;21.44;73.76
10897;BME280;5501;51.176;6.470;2022-07-23T08:48:39;101438.59;;;21.48;69.93
10897;BME280;5501;51.176;6.470;2022-07-23T08:53:41;101443.13;;;21.47;71.30
10897;BME280;5501;51.176;6.470;2022-07-23T08:58:44;101424.41;;;21.58;69.69
10897;BME280;5501;51.176;6.470;2022-07-23T09:03:46;101426.31;;;22.00;68.42
10897;BME280;5501;51.176;6.470;2022-07-23T09:08:48;101419.81;;;22.02;68.21
10897;BME280;5501;51.176;6.470;2022-07-23T09:13:53;101416.50;;;22.25;68.10
10897;BME280;5501;51.176;6.470;2022-07-23T09:19:06;101426.28;;;22.28;65.80
10897;BME280;5501;51.176;6.470;2022-07-23T09:24:12;101439.81;;;22.14;65.14
10897;BME280;5501;51.176;6.470;2022-07-23T09:29:24;101434.97;;;22.33;65.19
10897;BME280;5501;51.176;6.470;2022-07-23T09:34:31;101434.00;;;22.48;65.95
10897;BME280;5501;51.176;6.470;2022-07-23T09:39:34;101436.41;;;22.79;63.25
10897;BME280;5501;51.176;6.470;2022-07-23T09:44:40;101434.63;;;22.65;64.56
10897;BME280;5501;51.176;6.470;2022-07-23T09:55:05;101429.34;;;23.03;60.96
10897;BME280;5501;51.176;6.470;2022-07-23T10:00:08;101426.69;;;23.15;60.69
10897;BME280;5501;51.176;6.470;2022-07-23T10:05:12;101422.66;;;23.47;59.13
10897;BME280;5501;51.176;6.470;2022-07-23T10:10:34;101416.66;;;23.16;57.92
10897;BME280;5501;51.176;6.470;2022-07-23T10:16:11;101415.81;;;23.15;56.31
10897;BME280;5501;51.176;6.470;2022-07-23T10:21:41;101419.16;;;23.58;55.66
10897;BME280;5501;51.176;6.470;2022-07-23T10:27:02;101415.03;;;23.77;56.62
10897;BME280;5501;51.176;6.470;2022-07-23T10:32:26;101409.59;;;23.90;51.86
10897;BME280;5501;51.176;6.470;2022-07-23T10:37:39;101407.19;;;24.10;52.10
10897;BME280;5501;51.176;6.470;2022-07-23T10:42:41;101412.97;;;24.42;50.30
10897;BME280;5501;51.176;6.470;2022-07-23T10:47:43;101407.31;;;24.45;49.84
10897;BME280;5501;51.176;6.470;2022-07-23T10:53:20;101413.41;;;24.61;48.63
10897;BME280;5501;51.176;6.470;2022-07-23T10:58:45;101412.25;;;24.76;49.92
10897;BME280;5501;51.176;6.470;2022-07-23T11:03:56;101399.16;;;24.81;49.86
10897;BME280;5501;51.176;6.470;2022-07-23T11:35:27;101409.66;;;24.75;48.04
10897;BME280;5501;51.176;6.470;2022-07-23T11:40:29;101420.72;;;24.84;49.15
10897;BME280;5501;51.176;6.470;2022-07-23T11:45:34;101401.97;;;25.03;47.41
10897;BME280;5501;51.176;6.470;2022-07-23T11:50:36;101397.00;;;24.97;47.25
10897;BME280;5501;51.176;6.470;2022-07-23T11:55:38;101400.75;;;25.07;48.03
10897;BME280;5501;51.176;6.470;2022-07-23T12:00:41;101394.19;;;25.10;47.08
10897;BME280;5501;51.176;6.470;2022-07-23T12:05:42;101399.97;;;24.94;48.65
10897;BME280;5501;51.176;6.470;2022-07-23T12:10:44;101404.38;;;24.84;48.73
10897;BME280;5501;51.176;6.470;2022-07-23T12:15:51;101405.69;;;24.55;49.63
10897;BME280;5501;51.176;6.470;2022-07-23T12:20:55;101406.34;;;25.17;47.57
10897;BME280;5501;51.176;6.470;2022-07-23T12:26:01;101406.75;;;25.23;48.19
10897;BME280;5501;51.176;6.470;2022-07-23T12:31:03;101400.81;;;25.64;48.05
10897;BME280;5501;51.176;6.470;2022-07-23T12:36:09;101403.44;;;25.65;46.55
10897;BME280;5501;51.176;6.470;2022-07-23T12:41:10;101403.19;;;25.57;47.89
10897;BME280;5501;51.176;6.470;2022-07-23T12:46:17;101403.25;;;25.10;47.96
10897;BME280;5501;51.176;6.470;2022-07-23T12:51:26;101414.19;;;25.21;48.00
10897;BME280;5501;51.176;6.470;2022-07-23T12:56:34;101404.78;;;25.25;47.43
10897;BME280;5501;51.176;6.470;2022-07-23T13:01:38;101414.22;;;25.32;47.66
10897;BME280;5501;51.176;6.470;2022-07-23T13:06:48;101406.97;;;25.09;47.25
10897;BME280;5501;51.176;6.470;2022-07-23T13:11:52;101409.47;;;25.12;46.74
10897;BME280;5501;51.176;6.470;2022-07-23T13:16:55;101410.84;;;24.94;48.87
10897;BME280;5501;51.176;6.470;2022-07-23T13:21:59;101398.16;;;24.82;48.62
10897;BME280;5501;51.176;6.470;2022-07-23T13:27:09;101395.50;;;24.93;48.97
10897;BME280;5501;51.176;6.470;2022-07-23T13:32:13;101390.97;;;25.39;47.32
10897;BME280;5501;51.176;6.470;2022-07-23T13:37:15;101384.72;;;25.61;45.26
10897;BME280;5501;51.176;6.470;2022-07-23T13:42:19;101386.72;;;25.59;45.76
10897;BME280;5501;51.176;6.470;2022-07-23T13:47:23;101379.75;;;25.44;46.17
10897;BME280;5501;51.176;6.470;2022-07-23T13:52:25;101372.97;;;25.82;46.57
10897;BME280;5501;51.176;6.470;2022-07-23T13:57:27;101386.38;;;26.18;45.34
10897;BME280;5501;51.176;6.470;2022-07-23T14:02:29;101375.19;;;26.21;43.80
10897;BME280;5501;51.176;6.470;2022-07-23T14:07:31;101369.38;;;26.26;43.32
10897;BME280;5501;51.176;6.470;2022-07-23T14:12:33;101362.53;;;26.42;44.24
10897;BME280;5501;51.176;6.470;2022-07-23T14:17:38;101369.09;;;26.40;44.00
10897;BME280;5501;51.176;6.470;2022-07-23T14:22:41;101361.31;;;26.24;43.91
10897;BME280;5501;51.176;6.470;2022-07-23T14:27:44;101357.34;;;26.17;44.52
10897;BME280;5501;51.176;6.470;2022-07-23T14:32:46;101346.81;;;26.24;44.33
10897;BME280;5501;51.176;6.470;2022-07-23T14:37:48;101361.59;;;26.10;44.95
10897;BME280;5501;51.176;6.470;2022-07-23T14:42:49;101354.63;;;26.17;44.69
10897;BME280;5501;51.176;6.470;2022-07-23T14:47:51;101354.47;;;26.30;44.74
10897;BME280;5501;51.176;6.470;2022-07-23T14:52:53;101364.78;;;26.26;44.08
10897;BME280;5501;51.176;6.470;2022-07-23T14:57:54;101349.75;;;26.85;43.05
10897;BME280;5501;51.176;6.470;2022-07-23T15:02:56;101344.44;;;27.04;43.47
10897;BME280;5501;51.176;6.470;2022-07-23T15:07:58;101346.00;;;26.86;43.87
10897;BME280;5501;51.176;6.470;2022-07-23T15:13:01;101358.75;;;26.65;43.78
10897;BME280;5501;51.176;6.470;2022-07-23T15:18:02;101342.72;;;26.72;43.85
10897;BME280;5501;51.176;6.470;2022-07-23T15:23:05;101353.25;;;26.76;42.77
10897;BME280;5501;51.176;6.470;2022-07-23T15:28:08;101344.53;;;26.82;43.09
10897;BME280;5501;51.176;6.470;2022-07-23T15:33:10;101347.69;;;26.98;43.08
10897;BME280;5501;51.176;6.470;2022-07-23T15:38:22;101354.69;;;27.23;43.08
10897;BME280;5501;51.176;6.470;2022-07-23T15:43:26;101357.06;;;27.57;41.88
10897;BME280;5501;51.176;6.470;2022-07-23T15:48:28;101352.53;;;27.26;40.50
10897;BME280;5501;51.176;6.470;2022-07-23T15:53:31;101343.28;;;27.38;40.48
10897;BME280;5501;51.176;6.470;2022-07-23T15:58:38;101336.00;;;27.48;41.26
10897;BME280;5501;51.176;6.470;2022-07-23T16:03:40;101344.66;;;27.53;40.51
10897;BME280;5501;51.176;6.470;2022-07-23T16:08:41;101341.47;;;27.48;41.51
10897;BME280;5501;51.176;6.470;2022-07-23T16:13:44;101345.09;;;27.28;41.35
10897;BME280;5501;51.176;6.470;2022-07-23T16:18:45;101327.25;;;27.13;42.48
10897;BME280;5501;51.176;6.470;2022-07-23T16:23:49;101324.56;;;27.02;42.91
10897;BME280;5501;51.176;6.470;2022-07-23T16:28:52;101321.84;;;26.82;43.49
10897;BME280;5501;51.176;6.470;2022-07-23T16:33:53;101336.13;;;26.74;43.79
10897;BME280;5501;51.176;6.470;2022-07-23T16:38:56;101331.22;;;26.57;43.46
10897;BME280;5501;51.176;6.470;2022-07-23T16:44:06;101328.66;;;26.45;44.06
10897;BME280;5501;51.176;6.470;2022-07-23T16:49:08;101332.00;;;26.37;43.92
10897;BME280;5501;51.176;6.470;2022-07-23T16:54:10;101325.34;;;26.30;44.09
10897;BME280;5501;51.176;6.470;2022-07-23T16:59:12;101326.69;;;26.36;44.59
10897;BME280;5501;51.176;6.470;2022-07-23T17:04:13;101325.28;;;26.52;45.02
10897;BME280;5501;51.176;6.470;2022-07-23T17:09:15;101320.81;;;26.51;43.91
10897;BME280;5501;51.176;6.470;2022-07-23T17:14:16;101323.09;;;26.35;43.99
10897;BME280;5501;51.176;6.470;2022-07-23T17:19:18;101323.13;;;26.24;44.25
10897;BME280;5501;51.176;6.470;2022-07-23T17:24:20;101319.16;;;26.17;45.07
10897;BME280;5501;51.176;6.470;2022-07-23T17:29:22;101320.69;;;26.10;44.96
10897;BME280;5501;51.176;6.470;2022-07-23T17:34:24;101322.91;;;26.16;44.56
10897;BME280;5501;51.176;6.470;2022-07-23T17:39:27;101323.31;;;26.01;44.28
10897;BME280;5501;51.176;6.470;2022-07-23T17:44:29;101323.91;;;25.82;45.55
10897;BME280;5501;51.176;6.470;2022-07-23T17:49:31;101329.84;;;25.65;46.38
10897;BME280;5501;51.176;6.470;2022-07-23T17:54:33;101331.34;;;25.58;45.67
10897;BME280;5501;51.176;6.470;2022-07-23T17:59:35;101326.13;;;25.55;45.39
10897;BME280;5501;51.176;6.470;2022-07-23T18:04:36;101328.81;;;25.44;46.03
10897;BME280;5501;51.176;6.470;2022-07-23T18:09:38;101334.78;;;25.38;46.35
10897;BME280;5501;51.176;6.470;2022-07-23T18:14:39;101341.38;;;25.23;47.45
10897;BME280;5501;51.176;6.470;2022-07-23T18:19:41;101340.53;;;25.23;47.13
10897;BME280;5501;51.176;6.470;2022-07-23T18:24:43;101341.13;;;25.15;48.03
10897;BME280;5501;51.176;6.470;2022-07-23T18:29:45;101352.22;;;25.01;48.49
10897;BME280;5501;51.176;6.470;2022-07-23T18:34:47;101348.75;;;24.99;48.33
10897;BME280;5501;51.176;6.470;2022-07-23T18:39:49;101350.97;;;24.94;49.08
10897;BME280;5501;51.176;6.470;2022-07-23T18:44:51;101351.91;;;24.82;49.89
10897;BME280;5501;51.176;6.470;2022-07-23T18:49:53;101354.56;;;24.71;49.75
10897;BME280;5501;51.176;6.470;2022-07-23T18:54:54;101351.59;;;24.63;49.24
10897;BME280;5501;51.176;6.470;2022-07-23T18:59:59;101350.72;;;24.50;51.17
10897;BME280;5501;51.176;6.470;2022-07-23T19:05:01;101358.06;;;24.37;51.54
10897;BME280;5501;51.176;6.470;2022-07-23T19:10:05;101359.97;;;24.24;52.26
10897;BME280;5501;51.176;6.470;2022-07-23T19:15:07;101358.38;;;24.09;52.71
10897;BME280;5501;51.176;6.470;2022-07-23T19:20:10;101359.28;;;23.97;53.53
10897;BME280;5501;51.176;6.470;2022-07-23T19:25:11;101357.03;;;23.91;54.04
10897;BME280;5501;51.176;6.470;2022-07-23T19:30:13;101358.72;;;23.79;55.36
10897;BME280;5501;51.176;6.470;2022-07-23T19:35:15;101368.75;;;23.66;56.82
10897;BME280;5501;51.176;6.470;2022-07-23T19:40:16;101368.53;;;23.57;59.01
10897;BME280;5501;51.176;6.470;2022-07-23T19:45:18;101377.44;;;23.34;59.22
10897;BME280;5501;51.176;6.470;2022-07-23T19:50:20;101380.03;;;23.23;59.83
10897;BME280;5501;51.176;6.470;2022-07-23T19:55:22;101385.38;;;23.10;59.84
10897;BME280;5501;51.176;6.470;2022-07-23T20:00:24;101397.97;;;22.99;61.27
10897;BME280;5501;51.176;6.470;2022-07-23T20:05:26;101399.34;;;22.92;61.30
10897;BME280;5501;51.176;6.470;2022-07-23T20:10:28;101397.47;;;22.80;61.60
10897;BME280;5501;51.176;6.470;2022-07-23T20:15:29;101395.38;;;22.71;61.34
10897;BME280;5501;51.176;6.470;2022-07-23T20:20:32;101403.22;;;22.75;62.00
10897;BME280;5501;51.176;6.470;2022-07-23T20:25:34;101404.91;;;22.64;63.93
10897;BME280;5501;51.176;6.470;2022-07-23T20:30:36;101398.50;;;22.65;64.20
10897;BME280;5501;51.176;6.470;2022-07-23T20:35:38;101400.38;;;22.36;66.64
10897;BME280;5501;51.176;6.470;2022-07-23T20:40:40;101400.28;;;22.38;69.05
10897;BME280;5501;51.176;6.470;2022-07-23T20:45:47;101398.13;;;22.43;69.81
10897;BME280;5501;51.176;6.470;2022-07-23T20:50:49;101409.81;;;22.17;71.27
10897;BME280;5501;51.176;6.470;2022-07-23T20:55:51;101405.16;;;22.19;71.05
10897;BME280;5501;51.176;6.470;2022-07-23T21:00:55;101405.19;;;22.05;71.34
10897;BME280;5501;51.176;6.470;2022-07-23T21:05:57;101405.41;;;21.88;70.98
10897;BME280;5501;51.176;6.470;2022-07-23T21:10:58;101412.56;;;21.89;71.16
10897;BME280;5501;51.176;6.470;2022-07-23T21:16:00;101407.31;;;21.86;70.82
10897;BME280;5501;51.176;6.470;2022-07-23T21:21:02;101414.59;;;21.71;72.65
10897;BME280;5501;51.176;6.470;2022-07-23T21:26:11;101411.84;;;21.57;73.80
10897;BME280;5501;51.176;6.470;2022-07-23T21:31:34;101414.06;;;21.65;72.79
10897;BME280;5501;51.176;6.470;2022-07-23T21:36:35;101402.94;;;21.55;73.13
10897;BME280;5501;51.176;6.470;2022-07-23T21:41:37;101419.66;;;21.48;73.21
10897;BME280;5501;51.176;6.470;2022-07-23T21:46:39;101418.09;;;21.30;74.40
10897;BME280;5501;51.176;6.470;2022-07-23T21:51:41;101419.66;;;21.34;75.14
10897;BME280;5501;51.176;6.470;2022-07-23T21:56:45;101419.19;;;21.12;75.45
10897;BME280;5501;51.176;6.470;2022-07-23T22:01:48;101417.44;;;21.11;74.82
10897;BME280;5501;51.176;6.470;2022-07-23T22:06:50;101415.38;;;21.00;75.74
10897;BME280;5501;51.176;6.470;2022-07-23T22:11:52;101426.00;;;20.88;76.19
10897;BME280;5501;51.176;6.470;2022-07-23T22:16:53;101424.97;;;21.06;76.18
10897;BME280;5501;51.176;6.470;2022-07-23T22:21:55;101425.81;;;21.06;76.59
10897;BME280;5501;51.176;6.470;2022-07-23T22:26:56;101429.19;;;20.80;77.70
10897;BME280;5501;51.176;6.470;2022-07-23T22:31:58;101431.63;;;20.69;78.38
10897;BME280;5501;51.176;6.470;2022-07-23T22:36:59;101423.94;;;20.77;78.86
10897;BME280;5501;51.176;6.470;2022-07-23T22:42:01;101424.13;;;20.59;79.52
10897;BME280;5501;51.176;6.470;2022-07-23T22:47:02;101427.63;;;20.61;78.94
10897;BME280;5501;51.176;6.470;2022-07-23T22:52:05;101419.81;;;20.41;80.28
10897;BME280;5501;51.176;6.470;2022-07-23T22:57:10;101429.41;;;20.46;79.79
10897;BME280;5501;51.176;6.470;2022-07-23T23:02:11;101416.91;;;20.13;81.62
10897;BME280;5501;51.176;6.470;2022-07-23T23:07:13;101418.56;;;20.15;82.05
10897;BME280;5501;51.176;6.470;2022-07-23T23:12:16;101411.03;;;20.05;82.60
10897;BME280;5501;51.176;6.470;2022-07-23T23:17:18;101416.44;;;20.05;83.09
10897;BME280;5501;51.176;6.470;2022-07-23T23:22:19;101405.31;;;20.11;82.48
10897;BME280;5501;51.176;6.470;2022-07-23T23:27:21;101406.63;;;19.86;84.13
10897;BME280;5501;51.176;6.470;2022-07-23T23:32:23;101414.84;;;20.01;84.00
10897;BME280;5501;51.176;6.470;2022-07-23T23:37:24;101412.41;;;19.96;84.60
10897;BME280;5501;51.176;6.470;2022-07-23T23:42:26;101411.34;;;19.98;84.27
10897;BME280;5501;51.176;6.470;2022-07-23T23:47:28;101412.53;;;19.77;85.20
10897;BME280;5501;51.176;6.470;2022-07-23T23:52:30;101419.78;;;19.77;86.03
10897;BME280;5501;51.176;6.470;2022-07-23T23:57:32;101413.81;;;19.70;86.66
